Aviation Digital Data Service (ADDS)

Output produced by METARs form (1123 UTC 18 June 2019)
found at http://www.aviationweather.gov/metar/data/
 
METAR text: ENOL 181120Z 13012KT 9999 VCSH SCT015CB 17/09 Q1008 TEMPO TSRA
Conditions at: ENOL (ORLAND III(NOR-A, NO) observed 1120 UTC 18 June 2019
Temperature: 17.0°C (63°F)
Dewpoint: 9.0°C (48°F) [RH = 59%]
Pressure (altimeter): 29.76 inches Hg (1008.0 mb)
Winds: from the SE (130 degrees) at 14 MPH (12 knots; 6.2 m/s)
Visibility: 6 or more miles (10+ km)
Ceiling: at least 12,000 feet AGL
Clouds: scattered clouds at 1500 feet AGL
Weather: VCSH  (showers in vicinity)

METAR text: ENOL 181050Z 14014KT 9999 VCTS FEW015CB FEW040 17/09 Q1008 TEMPO SHRA SCT018CB BKN030
Conditions at: ENOL (ORLAND III(NOR-A, NO) observed 1050 UTC 18 June 2019
Temperature: 17.0°C (63°F)
Dewpoint: 9.0°C (48°F) [RH = 59%]
Pressure (altimeter): 29.76 inches Hg (1008.0 mb)
Winds: from the SE (140 degrees) at 16 MPH (14 knots; 7.2 m/s)
Visibility: 6 or more miles (10+ km)
Ceiling: at least 12,000 feet AGL
Clouds: few clouds at 1500 feet AGL
few clouds at 4000 feet AGL
Weather: VCTS  (thunderstorm in vicinity)

METAR text: ENOL 181020Z 14014KT 9999 FEW020CB FEW080 17/10 Q1008 TEMPO SHRA SCT018CB BKN030
Conditions at: ENOL (ORLAND III(NOR-A, NO) observed 1020 UTC 18 June 2019
Temperature: 17.0°C (63°F)
Dewpoint: 10.0°C (50°F) [RH = 63%]
Pressure (altimeter): 29.76 inches Hg (1008.0 mb)
Winds: from the SE (140 degrees) at 16 MPH (14 knots; 7.2 m/s)
Visibility: 6 or more miles (10+ km)
Ceiling: at least 12,000 feet AGL
Clouds: few clouds at 2000 feet AGL
few clouds at 8000 feet AGL
Weather: no significant weather observed at this time

METAR text: ENOL 180950Z 14014KT 9999 FEW020TCU SCT090 17/11 Q1008 NOSIG
Conditions at: ENOL (ORLAND III(NOR-A, NO) observed 0950 UTC 18 June 2019
Temperature: 17.0°C (63°F)
Dewpoint: 11.0°C (52°F) [RH = 68%]
Pressure (altimeter): 29.76 inches Hg (1008.0 mb)
Winds: from the SE (140 degrees) at 16 MPH (14 knots; 7.2 m/s)
Visibility: 6 or more miles (10+ km)
Ceiling: at least 12,000 feet AGL
Clouds: few clouds at 2000 feet AGL
scattered clouds at 9000 feet AGL
Weather: no significant weather observed at this time

METAR text: ENOL 180920Z 14014KT 9999 FEW020 SCT090 16/10 Q1008 NOSIG
Conditions at: ENOL (ORLAND III(NOR-A, NO) observed 0920 UTC 18 June 2019
Temperature: 16.0°C (61°F)
Dewpoint: 10.0°C (50°F) [RH = 68%]
Pressure (altimeter): 29.76 inches Hg (1008.0 mb)
Winds: from the SE (140 degrees) at 16 MPH (14 knots; 7.2 m/s)
Visibility: 6 or more miles (10+ km)
Ceiling: at least 12,000 feet AGL
Clouds: few clouds at 2000 feet AGL
scattered clouds at 9000 feet AGL
Weather: no significant weather observed at this time

METAR text: ENOL 180850Z 14017KT 9999 FEW020 15/10 Q1008 NOSIG
Conditions at: ENOL (ORLAND III(NOR-A, NO) observed 0850 UTC 18 June 2019
Temperature: 15.0°C (59°F)
Dewpoint: 10.0°C (50°F) [RH = 72%]
Pressure (altimeter): 29.76 inches Hg (1008.0 mb)
Winds: from the SE (140 degrees) at 20 MPH (17 knots; 8.7 m/s)
Visibility: 6 or more miles (10+ km)
Ceiling: at least 12,000 feet AGL
Clouds: few clouds at 2000 feet AGL
Weather: no significant weather observed at this time

METAR text: ENOL 180820Z 13017KT 9999 FEW015 SCT090 15/11 Q1009 NOSIG
Conditions at: ENOL (ORLAND III(NOR-A, NO) observed 0820 UTC 18 June 2019
Temperature: 15.0°C (59°F)
Dewpoint: 11.0°C (52°F) [RH = 77%]
Pressure (altimeter): 29.79 inches Hg (1009.0 mb)
Winds: from the SE (130 degrees) at 20 MPH (17 knots; 8.7 m/s)
Visibility: 6 or more miles (10+ km)
Ceiling: at least 12,000 feet AGL
Clouds: few clouds at 1500 feet AGL
scattered clouds at 9000 feet AGL
Weather: no significant weather observed at this time

METAR text: ENOL 180750Z 13018KT 9999 FEW015 SCT090 14/10 Q1009 NOSIG
Conditions at: ENOL (ORLAND III(NOR-A, NO) observed 0750 UTC 18 June 2019
Temperature: 14.0°C (57°F)
Dewpoint: 10.0°C (50°F) [RH = 77%]
Pressure (altimeter): 29.79 inches Hg (1009.0 mb)
Winds: from the SE (130 degrees) at 21 MPH (18 knots; 9.3 m/s)
Visibility: 6 or more miles (10+ km)
Ceiling: at least 12,000 feet AGL
Clouds: few clouds at 1500 feet AGL
scattered clouds at 9000 feet AGL
Weather: no significant weather observed at this time

METAR text: ENOL 180720Z 13015KT 9999 FEW012 SCT070 13/10 Q1009 TEMPO SHRA SCT018CB BKN030
Conditions at: ENOL (ORLAND III(NOR-A, NO) observed 0720 UTC 18 June 2019
Temperature: 13.0°C (55°F)
Dewpoint: 10.0°C (50°F) [RH = 82%]
Pressure (altimeter): 29.79 inches Hg (1009.0 mb)
Winds: from the SE (130 degrees) at 17 MPH (15 knots; 7.7 m/s)
Visibility: 6 or more miles (10+ km)
Ceiling: at least 12,000 feet AGL
Clouds: few clouds at 1200 feet AGL
scattered clouds at 7000 feet AGL
Weather: no significant weather observed at this time

METAR text: ENOL 180650Z 13014KT 9999 -SHRA FEW010 SCT020CB BKN060 12/10 Q1009 TEMPO SHRA
Conditions at: ENOL (ORLAND III(NOR-A, NO) observed 0650 UTC 18 June 2019
Temperature: 12.0°C (54°F)
Dewpoint: 10.0°C (50°F) [RH = 88%]
Pressure (altimeter): 29.79 inches Hg (1009.0 mb)
Winds: from the SE (130 degrees) at 16 MPH (14 knots; 7.2 m/s)
Visibility: 6 or more miles (10+ km)
Ceiling: 6000 feet AGL
Clouds: few clouds at 1000 feet AGL
scattered clouds at 2000 feet AGL
broken clouds at 6000 feet AGL
Weather: -SHRA  (light rain showers)

METAR text: ENOL 180620Z 13012KT 9999 VCSH FEW010 SCT020CB BKN070 13/10 Q1009 TEMPO SHRA
Conditions at: ENOL (ORLAND III(NOR-A, NO) observed 0620 UTC 18 June 2019
Temperature: 13.0°C (55°F)
Dewpoint: 10.0°C (50°F) [RH = 82%]
Pressure (altimeter): 29.79 inches Hg (1009.0 mb)
Winds: from the SE (130 degrees) at 14 MPH (12 knots; 6.2 m/s)
Visibility: 6 or more miles (10+ km)
Ceiling: 7000 feet AGL
Clouds: few clouds at 1000 feet AGL
scattered clouds at 2000 feet AGL
broken clouds at 7000 feet AGL
Weather: VCSH  (showers in vicinity)

METAR text: ENOL 180550Z 11011KT 9999 VCSH FEW010 SCT020CB BKN070 13/10 Q1009 TEMPO SHRA
Conditions at: ENOL (ORLAND III(NOR-A, NO) observed 0550 UTC 18 June 2019
Temperature: 13.0°C (55°F)
Dewpoint: 10.0°C (50°F) [RH = 82%]
Pressure (altimeter): 29.79 inches Hg (1009.0 mb)
Winds: from the ESE (110 degrees) at 13 MPH (11 knots; 5.7 m/s)
Visibility: 6 or more miles (10+ km)
Ceiling: 7000 feet AGL
Clouds: few clouds at 1000 feet AGL
scattered clouds at 2000 feet AGL
broken clouds at 7000 feet AGL
Weather: VCSH  (showers in vicinity)

METAR text: ENOL 180520Z 11011KT 9999 VCSH FEW010 SCT020CB BKN060 12/11 Q1009 TEMPO SHRA
Conditions at: ENOL (ORLAND III(NOR-A, NO) observed 0520 UTC 18 June 2019
Temperature: 12.0°C (54°F)
Dewpoint: 11.0°C (52°F) [RH = 94%]
Pressure (altimeter): 29.79 inches Hg (1009.0 mb)
Winds: from the ESE (110 degrees) at 13 MPH (11 knots; 5.7 m/s)
Visibility: 6 or more miles (10+ km)
Ceiling: 6000 feet AGL
Clouds: few clouds at 1000 feet AGL
scattered clouds at 2000 feet AGL
broken clouds at 6000 feet AGL
Weather: VCSH  (showers in vicinity)

METAR text: ENOL 180450Z 09010KT 9999 FEW010 SCT025 BKN060 12/11 Q1009 TEMPO SHRA SCT018CB BKN030
Conditions at: ENOL (ORLAND III(NOR-A, NO) observed 0450 UTC 18 June 2019
Temperature: 12.0°C (54°F)
Dewpoint: 11.0°C (52°F) [RH = 94%]
Pressure (altimeter): 29.79 inches Hg (1009.0 mb)
Winds: from the E (90 degrees) at 12 MPH (10 knots; 5.1 m/s)
Visibility: 6 or more miles (10+ km)
Ceiling: 6000 feet AGL
Clouds: few clouds at 1000 feet AGL
scattered clouds at 2500 feet AGL
broken clouds at 6000 feet AGL
Weather: no significant weather observed at this time

METAR text: ENOL 180420Z 10005KT 9999 -SHRA FEW010 SCT030 BKN055 12/11 Q1010 TEMPO SHRA SCT018CB BKN030
Conditions at: ENOL (ORLAND III(NOR-A, NO) observed 0420 UTC 18 June 2019
Temperature: 12.0°C (54°F)
Dewpoint: 11.0°C (52°F) [RH = 94%]
Pressure (altimeter): 29.82 inches Hg (1010.0 mb)
Winds: from the E (100 degrees) at 6 MPH (5 knots; 2.6 m/s)
Visibility: 6 or more miles (10+ km)
Ceiling: 5500 feet AGL
Clouds: few clouds at 1000 feet AGL
scattered clouds at 3000 feet AGL
broken clouds at 5500 feet AGL
Weather: -SHRA  (light rain showers)

METAR text: ENOL 180350Z 08005KT 9999 -SHRA FEW010 SCT030 BKN050 12/11 Q1010
Conditions at: ENOL (ORLAND III(NOR-A, NO) observed 0350 UTC 18 June 2019
Temperature: 12.0°C (54°F)
Dewpoint: 11.0°C (52°F) [RH = 94%]
Pressure (altimeter): 29.82 inches Hg (1010.0 mb)
Winds: from the E (80 degrees) at 6 MPH (5 knots; 2.6 m/s)
Visibility: 6 or more miles (10+ km)
Ceiling: 5000 feet AGL
Clouds: few clouds at 1000 feet AGL
scattered clouds at 3000 feet AGL
broken clouds at 5000 feet AGL
Weather: -SHRA  (light rain showers)

METAR text: ENOL 180250Z 35007KT 9999 -SHRA FEW010 BKN025 12/11 Q1010
Conditions at: ENOL (ORLAND III(NOR-A, NO) observed 0250 UTC 18 June 2019
Temperature: 12.0°C (54°F)
Dewpoint: 11.0°C (52°F) [RH = 94%]
Pressure (altimeter): 29.82 inches Hg (1010.0 mb)
Winds: from the N (350 degrees) at 8 MPH (7 knots; 3.6 m/s)
Visibility: 6 or more miles (10+ km)
Ceiling: 2500 feet AGL
Clouds: few clouds at 1000 feet AGL
broken clouds at 2500 feet AGL
Weather: -SHRA  (light rain showers)

METAR text: ENOL 180150Z 33005KT 9999 -SHRA FEW030CB BKN060 12/11 Q1010
Conditions at: ENOL (ORLAND III(NOR-A, NO) observed 0150 UTC 18 June 2019
Temperature: 12.0°C (54°F)
Dewpoint: 11.0°C (52°F) [RH = 94%]
Pressure (altimeter): 29.82 inches Hg (1010.0 mb)
Winds: from the NNW (330 degrees) at 6 MPH (5 knots; 2.6 m/s)
Visibility: 6 or more miles (10+ km)
Ceiling: 6000 feet AGL
Clouds: few clouds at 3000 feet AGL
broken clouds at 6000 feet AGL
Weather: -SHRA  (light rain showers)

METAR text: ENOL 180050Z 02003KT 9999 -SHRA FEW030CB BKN060 12/10 Q1009
Conditions at: ENOL (ORLAND III(NOR-A, NO) observed 0050 UTC 18 June 2019
Temperature: 12.0°C (54°F)
Dewpoint: 10.0°C (50°F) [RH = 88%]
Pressure (altimeter): 29.79 inches Hg (1009.0 mb)
Winds: from the NNE (20 degrees) at 3 MPH (3 knots; 1.5 m/s)
Visibility: 6 or more miles (10+ km)
Ceiling: 6000 feet AGL
Clouds: few clouds at 3000 feet AGL
broken clouds at 6000 feet AGL
Weather: -SHRA  (light rain showers)

METAR text: ENOL 172350Z VRB02KT 9999 -SHRA FEW030CB BKN050 12/11 Q1009
Conditions at: ENOL (ORLAND III(NOR-A, NO) observed 2350 UTC 17 June 2019
Temperature: 12.0°C (54°F)
Dewpoint: 11.0°C (52°F) [RH = 94%]
Pressure (altimeter): 29.79 inches Hg (1009.0 mb)
Winds: variable direction winds at 2 MPH (2 knots; 1.0 m/s)
Visibility: 6 or more miles (10+ km)
Ceiling: 5000 feet AGL
Clouds: few clouds at 3000 feet AGL
broken clouds at 5000 feet AGL
Weather: -SHRA  (light rain showers)

METAR text: ENOL 172250Z 33010KT 9999 VCTS FEW030CB BKN060 13/11 Q1009 RETSRA
Conditions at: ENOL (ORLAND III(NOR-A, NO) observed 2250 UTC 17 June 2019
Temperature: 13.0°C (55°F)
Dewpoint: 11.0°C (52°F) [RH = 88%]
Pressure (altimeter): 29.79 inches Hg (1009.0 mb)
Winds: from the NNW (330 degrees) at 12 MPH (10 knots; 5.1 m/s)
Visibility: 6 or more miles (10+ km)
Ceiling: 6000 feet AGL
Clouds: few clouds at 3000 feet AGL
broken clouds at 6000 feet AGL
Weather: VCTS  (thunderstorm in vicinity)

METAR text: ENOL 172150Z 08002KT 9999 VCTS SCT030CB BKN080 14/10 Q1008
Conditions at: ENOL (ORLAND III(NOR-A, NO) observed 2150 UTC 17 June 2019
Temperature: 14.0°C (57°F)
Dewpoint: 10.0°C (50°F) [RH = 77%]
Pressure (altimeter): 29.76 inches Hg (1008.0 mb)
Winds: from the E (80 degrees) at 2 MPH (2 knots; 1.0 m/s)
Visibility: 6 or more miles (10+ km)
Ceiling: 8000 feet AGL
Clouds: scattered clouds at 3000 feet AGL
broken clouds at 8000 feet AGL
Weather: VCTS  (thunderstorm in vicinity)

METAR text: ENOL 172050Z 10006KT 9999 VCSH FEW040CB BKN080 15/11 Q1008 TEMPO TSRA
Conditions at: ENOL (ORLAND III(NOR-A, NO) observed 2050 UTC 17 June 2019
Temperature: 15.0°C (59°F)
Dewpoint: 11.0°C (52°F) [RH = 77%]
Pressure (altimeter): 29.76 inches Hg (1008.0 mb)
Winds: from the E (100 degrees) at 7 MPH (6 knots; 3.1 m/s)
Visibility: 6 or more miles (10+ km)
Ceiling: 8000 feet AGL
Clouds: few clouds at 4000 feet AGL
broken clouds at 8000 feet AGL
Weather: VCSH  (showers in vicinity)

METAR text: ENOL 172020Z 12004KT 9999 FEW040 SCT080 BKN120 15/10 Q1008 TEMPO SHRA
Conditions at: ENOL (ORLAND III(NOR-A, NO) observed 2020 UTC 17 June 2019
Temperature: 15.0°C (59°F)
Dewpoint: 10.0°C (50°F) [RH = 72%]
Pressure (altimeter): 29.76 inches Hg (1008.0 mb)
Winds: from the ESE (120 degrees) at 5 MPH (4 knots; 2.1 m/s)
Visibility: 6 or more miles (10+ km)
Ceiling: 12000 feet AGL
Clouds: few clouds at 4000 feet AGL
scattered clouds at 8000 feet AGL
broken clouds at 12000 feet AGL
Weather: no significant weather observed at this time

METAR text: ENOL 171950Z 11006KT 9999 FEW040 SCT080 BKN120 15/10 Q1008 NOSIG
Conditions at: ENOL (ORLAND III(NOR-A, NO) observed 1950 UTC 17 June 2019
Temperature: 15.0°C (59°F)
Dewpoint: 10.0°C (50°F) [RH = 72%]
Pressure (altimeter): 29.76 inches Hg (1008.0 mb)
Winds: from the ESE (110 degrees) at 7 MPH (6 knots; 3.1 m/s)
Visibility: 6 or more miles (10+ km)
Ceiling: 12000 feet AGL
Clouds: few clouds at 4000 feet AGL
scattered clouds at 8000 feet AGL
broken clouds at 12000 feet AGL
Weather: no significant weather observed at this time

METAR text: ENOL 171920Z 11005KT 9999 FEW040 BKN080 16/10 Q1009 NOSIG
Conditions at: ENOL (ORLAND III(NOR-A, NO) observed 1920 UTC 17 June 2019
Temperature: 16.0°C (61°F)
Dewpoint: 10.0°C (50°F) [RH = 68%]
Pressure (altimeter): 29.79 inches Hg (1009.0 mb)
Winds: from the ESE (110 degrees) at 6 MPH (5 knots; 2.6 m/s)
Visibility: 6 or more miles (10+ km)
Ceiling: 8000 feet AGL
Clouds: few clouds at 4000 feet AGL
broken clouds at 8000 feet AGL
Weather: no significant weather observed at this time

METAR text: ENOL 171850Z 09005KT 9999 FEW035 BKN100 16/09 Q1009 NOSIG
Conditions at: ENOL (ORLAND III(NOR-A, NO) observed 1850 UTC 17 June 2019
Temperature: 16.0°C (61°F)
Dewpoint: 9.0°C (48°F) [RH = 63%]
Pressure (altimeter): 29.79 inches Hg (1009.0 mb)
Winds: from the E (90 degrees) at 6 MPH (5 knots; 2.6 m/s)
Visibility: 6 or more miles (10+ km)
Ceiling: 10000 feet AGL
Clouds: few clouds at 3500 feet AGL
broken clouds at 10000 feet AGL
Weather: no significant weather observed at this time

METAR text: ENOL 171820Z 10008KT 9999 FEW035 BKN100 17/08 Q1009 NOSIG
Conditions at: ENOL (ORLAND III(NOR-A, NO) observed 1820 UTC 17 June 2019
Temperature: 17.0°C (63°F)
Dewpoint: 8.0°C (46°F) [RH = 55%]
Pressure (altimeter): 29.79 inches Hg (1009.0 mb)
Winds: from the E (100 degrees) at 9 MPH (8 knots; 4.1 m/s)
Visibility: 6 or more miles (10+ km)
Ceiling: 10000 feet AGL
Clouds: few clouds at 3500 feet AGL
broken clouds at 10000 feet AGL
Weather: no significant weather observed at this time

METAR text: ENOL 171750Z 11007KT 9999 FEW035 BKN180 17/08 Q1009 NOSIG
Conditions at: ENOL (ORLAND III(NOR-A, NO) observed 1750 UTC 17 June 2019
Temperature: 17.0°C (63°F)
Dewpoint: 8.0°C (46°F) [RH = 55%]
Pressure (altimeter): 29.79 inches Hg (1009.0 mb)
Winds: from the ESE (110 degrees) at 8 MPH (7 knots; 3.6 m/s)
Visibility: 6 or more miles (10+ km)
Ceiling: 18000 feet AGL
Clouds: few clouds at 3500 feet AGL
broken clouds at 18000 feet AGL
Weather: no significant weather observed at this time

METAR text: ENOL 171720Z 13007KT 9999 FEW035 BKN200 16/09 Q1010 NOSIG
Conditions at: ENOL (ORLAND III(NOR-A, NO) observed 1720 UTC 17 June 2019
Temperature: 16.0°C (61°F)
Dewpoint: 9.0°C (48°F) [RH = 63%]
Pressure (altimeter): 29.82 inches Hg (1010.0 mb)
Winds: from the SE (130 degrees) at 8 MPH (7 knots; 3.6 m/s)
Visibility: 6 or more miles (10+ km)
Ceiling: 20000 feet AGL
Clouds: few clouds at 3500 feet AGL
broken clouds at 20000 feet AGL
Weather: no significant weather observed at this time

METAR text: ENOL 171650Z 14008KT 9999 FEW035 BKN200 18/09 Q1010 NOSIG
Conditions at: ENOL (ORLAND III(NOR-A, NO) observed 1650 UTC 17 June 2019
Temperature: 18.0°C (64°F)
Dewpoint: 9.0°C (48°F) [RH = 56%]
Pressure (altimeter): 29.82 inches Hg (1010.0 mb)
Winds: from the SE (140 degrees) at 9 MPH (8 knots; 4.1 m/s)
Visibility: 6 or more miles (10+ km)
Ceiling: 20000 feet AGL
Clouds: few clouds at 3500 feet AGL
broken clouds at 20000 feet AGL
Weather: no significant weather observed at this time

METAR text: ENOL 171620Z 13008KT 9999 FEW020 SCT200 18/08 Q1010 NOSIG
Conditions at: ENOL (ORLAND III(NOR-A, NO) observed 1620 UTC 17 June 2019
Temperature: 18.0°C (64°F)
Dewpoint: 8.0°C (46°F) [RH = 52%]
Pressure (altimeter): 29.82 inches Hg (1010.0 mb)
Winds: from the SE (130 degrees) at 9 MPH (8 knots; 4.1 m/s)
Visibility: 6 or more miles (10+ km)
Ceiling: at least 12,000 feet AGL
Clouds: few clouds at 2000 feet AGL
scattered clouds at 20000 feet AGL
Weather: no significant weather observed at this time

METAR text: ENOL 171550Z 12005KT 060V170 9999 FEW020 SCT200 18/09 Q1011 NOSIG
Conditions at: ENOL (ORLAND III(NOR-A, NO) observed 1550 UTC 17 June 2019
Temperature: 18.0°C (64°F)
Dewpoint: 9.0°C (48°F) [RH = 56%]
Pressure (altimeter): 29.85 inches Hg (1011.0 mb)
Winds: from the ESE (120 degrees) at 6 MPH (5 knots; 2.6 m/s)
Visibility: 6 or more miles (10+ km)
Ceiling: at least 12,000 feet AGL
Clouds: few clouds at 2000 feet AGL
scattered clouds at 20000 feet AGL
Weather: no significant weather observed at this time

METAR text: ENOL 171520Z 35006KT 9999 FEW020 BKN200 18/07 Q1011 BECMG 12010KT
Conditions at: ENOL (ORLAND III(NOR-A, NO) observed 1520 UTC 17 June 2019
Temperature: 18.0°C (64°F)
Dewpoint: 7.0°C (45°F) [RH = 49%]
Pressure (altimeter): 29.85 inches Hg (1011.0 mb)
Winds: from the N (350 degrees) at 7 MPH (6 knots; 3.1 m/s)
Visibility: 6 or more miles (10+ km)
Ceiling: 20000 feet AGL
Clouds: few clouds at 2000 feet AGL
broken clouds at 20000 feet AGL
Weather: no significant weather observed at this time

METAR text: ENOL 171450Z 34007KT 9999 FEW020 BKN230 17/06 Q1012 BECMG 12010KT
Conditions at: ENOL (ORLAND III(NOR-A, NO) observed 1450 UTC 17 June 2019
Temperature: 17.0°C (63°F)
Dewpoint: 6.0°C (43°F) [RH = 48%]
Pressure (altimeter): 29.88 inches Hg (1012.0 mb)
Winds: from the NNW (340 degrees) at 8 MPH (7 knots; 3.6 m/s)
Visibility: 6 or more miles (10+ km)
Ceiling: 23000 feet AGL
Clouds: few clouds at 2000 feet AGL
broken clouds at 23000 feet AGL
Weather: no significant weather observed at this time

METAR text: ENOL 171420Z 35008KT 9999 FEW020 BKN230 17/08 Q1012 BECMG 12010KT
Conditions at: ENOL (ORLAND III(NOR-A, NO) observed 1420 UTC 17 June 2019
Temperature: 17.0°C (63°F)
Dewpoint: 8.0°C (46°F) [RH = 55%]
Pressure (altimeter): 29.88 inches Hg (1012.0 mb)
Winds: from the N (350 degrees) at 9 MPH (8 knots; 4.1 m/s)
Visibility: 6 or more miles (10+ km)
Ceiling: 23000 feet AGL
Clouds: few clouds at 2000 feet AGL
broken clouds at 23000 feet AGL
Weather: no significant weather observed at this time

METAR text: ENOL 171350Z 34007KT 9999 FEW020 BKN230 17/09 Q1012 NOSIG
Conditions at: ENOL (ORLAND III(NOR-A, NO) observed 1350 UTC 17 June 2019
Temperature: 17.0°C (63°F)
Dewpoint: 9.0°C (48°F) [RH = 59%]
Pressure (altimeter): 29.88 inches Hg (1012.0 mb)
Winds: from the NNW (340 degrees) at 8 MPH (7 knots; 3.6 m/s)
Visibility: 6 or more miles (10+ km)
Ceiling: 23000 feet AGL
Clouds: few clouds at 2000 feet AGL
broken clouds at 23000 feet AGL
Weather: no significant weather observed at this time

METAR text: ENOL 171250Z 01004KT 290V070 9999 FEW020 BKN080 16/10 Q1013 NOSIG
Conditions at: ENOL (ORLAND III(NOR-A, NO) observed 1250 UTC 17 June 2019
Temperature: 16.0°C (61°F)
Dewpoint: 10.0°C (50°F) [RH = 68%]
Pressure (altimeter): 29.91 inches Hg (1013.0 mb)
Winds: from the N (10 degrees) at 5 MPH (4 knots; 2.1 m/s)
Visibility: 6 or more miles (10+ km)
Ceiling: 8000 feet AGL
Clouds: few clouds at 2000 feet AGL
broken clouds at 8000 feet AGL
Weather: no significant weather observed at this time

METAR text: ENOL 171220Z 31004KT 9999 FEW020 BKN080 15/08 Q1014 NOSIG
Conditions at: ENOL (ORLAND III(NOR-A, NO) observed 1220 UTC 17 June 2019
Temperature: 15.0°C (59°F)
Dewpoint: 8.0°C (46°F) [RH = 63%]
Pressure (altimeter): 29.94 inches Hg (1014.0 mb)
Winds: from the NW (310 degrees) at 5 MPH (4 knots; 2.1 m/s)
Visibility: 6 or more miles (10+ km)
Ceiling: 8000 feet AGL
Clouds: few clouds at 2000 feet AGL
broken clouds at 8000 feet AGL
Weather: no significant weather observed at this time

METAR text: ENOL 171150Z 35005KT 9999 FEW020 BKN080 15/07 Q1014 NOSIG
Conditions at: ENOL (ORLAND III(NOR-A, NO) observed 1150 UTC 17 June 2019
Temperature: 15.0°C (59°F)
Dewpoint: 7.0°C (45°F) [RH = 59%]
Pressure (altimeter): 29.94 inches Hg (1014.0 mb)
Winds: from the N (350 degrees) at 6 MPH (5 knots; 2.6 m/s)
Visibility: 6 or more miles (10+ km)
Ceiling: 8000 feet AGL
Clouds: few clouds at 2000 feet AGL
broken clouds at 8000 feet AGL
Weather: no significant weather observed at this time

METAR text: ENOL 171120Z VRB02KT 9999 FEW020 SCT080 15/09 Q1014 NOSIG
Conditions at: ENOL (ORLAND III(NOR-A, NO) observed 1120 UTC 17 June 2019
Temperature: 15.0°C (59°F)
Dewpoint: 9.0°C (48°F) [RH = 67%]
Pressure (altimeter): 29.94 inches Hg (1014.0 mb)
Winds: variable direction winds at 2 MPH (2 knots; 1.0 m/s)
Visibility: 6 or more miles (10+ km)
Ceiling: at least 12,000 feet AGL
Clouds: few clouds at 2000 feet AGL
scattered clouds at 8000 feet AGL
Weather: no significant weather observed at this time

METAR text: ENOL 171050Z 23004KT 9999 FEW020 BKN090 15/09 Q1014 NOSIG
Conditions at: ENOL (ORLAND III(NOR-A, NO) observed 1050 UTC 17 June 2019
Temperature: 15.0°C (59°F)
Dewpoint: 9.0°C (48°F) [RH = 67%]
Pressure (altimeter): 29.94 inches Hg (1014.0 mb)
Winds: from the SW (230 degrees) at 5 MPH (4 knots; 2.1 m/s)
Visibility: 6 or more miles (10+ km)
Ceiling: 9000 feet AGL
Clouds: few clouds at 2000 feet AGL
broken clouds at 9000 feet AGL
Weather: no significant weather observed at this time

METAR text: ENOL 171020Z VRB03KT 9999 FEW016 BKN090 16/10 Q1014 NOSIG
Conditions at: ENOL (ORLAND III(NOR-A, NO) observed 1020 UTC 17 June 2019
Temperature: 16.0°C (61°F)
Dewpoint: 10.0°C (50°F) [RH = 68%]
Pressure (altimeter): 29.94 inches Hg (1014.0 mb)
Winds: variable direction winds at 3 MPH (3 knots; 1.5 m/s)
Visibility: 6 or more miles (10+ km)
Ceiling: 9000 feet AGL
Clouds: few clouds at 1600 feet AGL
broken clouds at 9000 feet AGL
Weather: no significant weather observed at this time

METAR text: ENOL 170950Z VRB03KT 9999 FEW016 BKN090 14/10 Q1014 NOSIG
Conditions at: ENOL (ORLAND III(NOR-A, NO) observed 0950 UTC 17 June 2019
Temperature: 14.0°C (57°F)
Dewpoint: 10.0°C (50°F) [RH = 77%]
Pressure (altimeter): 29.94 inches Hg (1014.0 mb)
Winds: variable direction winds at 3 MPH (3 knots; 1.5 m/s)
Visibility: 6 or more miles (10+ km)
Ceiling: 9000 feet AGL
Clouds: few clouds at 1600 feet AGL
broken clouds at 9000 feet AGL
Weather: no significant weather observed at this time

METAR text: ENOL 170920Z 23003KT 190V280 9999 FEW015 SCT070 BKN100 13/10 Q1014 NOSIG
Conditions at: ENOL (ORLAND III(NOR-A, NO) observed 0920 UTC 17 June 2019
Temperature: 13.0°C (55°F)
Dewpoint: 10.0°C (50°F) [RH = 82%]
Pressure (altimeter): 29.94 inches Hg (1014.0 mb)
Winds: from the SW (230 degrees) at 3 MPH (3 knots; 1.5 m/s)
Visibility: 6 or more miles (10+ km)
Ceiling: 10000 feet AGL
Clouds: few clouds at 1500 feet AGL
scattered clouds at 7000 feet AGL
broken clouds at 10000 feet AGL
Weather: no significant weather observed at this time

METAR text: ENOL 170850Z 24003KT 190V280 9999 FEW008 SCT012 BKN060 13/10 Q1014 NOSIG
Conditions at: ENOL (ORLAND III(NOR-A, NO) observed 0850 UTC 17 June 2019
Temperature: 13.0°C (55°F)
Dewpoint: 10.0°C (50°F) [RH = 82%]
Pressure (altimeter): 29.94 inches Hg (1014.0 mb)
Winds: from the WSW (240 degrees) at 3 MPH (3 knots; 1.5 m/s)
Visibility: 6 or more miles (10+ km)
Ceiling: 6000 feet AGL
Clouds: few clouds at 800 feet AGL
scattered clouds at 1200 feet AGL
broken clouds at 6000 feet AGL
Weather: no significant weather observed at this time

METAR text: ENOL 170820Z 25004KT 9999 FEW008 SCT012 BKN070 13/10 Q1014 NOSIG
Conditions at: ENOL (ORLAND III(NOR-A, NO) observed 0820 UTC 17 June 2019
Temperature: 13.0°C (55°F)
Dewpoint: 10.0°C (50°F) [RH = 82%]
Pressure (altimeter): 29.94 inches Hg (1014.0 mb)
Winds: from the WSW (250 degrees) at 5 MPH (4 knots; 2.1 m/s)
Visibility: 6 or more miles (10+ km)
Ceiling: 7000 feet AGL
Clouds: few clouds at 800 feet AGL
scattered clouds at 1200 feet AGL
broken clouds at 7000 feet AGL
Weather: no significant weather observed at this time

METAR text: ENOL 170750Z 27005KT 9999 FEW008 BKN080 12/11 Q1014 NOSIG
Conditions at: ENOL (ORLAND III(NOR-A, NO) observed 0750 UTC 17 June 2019
Temperature: 12.0°C (54°F)
Dewpoint: 11.0°C (52°F) [RH = 94%]
Pressure (altimeter): 29.94 inches Hg (1014.0 mb)
Winds: from the W (270 degrees) at 6 MPH (5 knots; 2.6 m/s)
Visibility: 6 or more miles (10+ km)
Ceiling: 8000 feet AGL
Clouds: few clouds at 800 feet AGL
broken clouds at 8000 feet AGL
Weather: no significant weather observed at this time

METAR text: ENOL 170720Z 26005KT 9999 FEW015 BKN080 11/10 Q1014 NOSIG
Conditions at: ENOL (ORLAND III(NOR-A, NO) observed 0720 UTC 17 June 2019
Temperature: 11.0°C (52°F)
Dewpoint: 10.0°C (50°F) [RH = 94%]
Pressure (altimeter): 29.94 inches Hg (1014.0 mb)
Winds: from the W (260 degrees) at 6 MPH (5 knots; 2.6 m/s)
Visibility: 6 or more miles (10+ km)
Ceiling: 8000 feet AGL
Clouds: few clouds at 1500 feet AGL
broken clouds at 8000 feet AGL
Weather: no significant weather observed at this time

METAR text: ENOL 170650Z 27007KT 9999 FEW010 BKN080 13/11 Q1014 NOSIG
Conditions at: ENOL (ORLAND III(NOR-A, NO) observed 0650 UTC 17 June 2019
Temperature: 13.0°C (55°F)
Dewpoint: 11.0°C (52°F) [RH = 88%]
Pressure (altimeter): 29.94 inches Hg (1014.0 mb)
Winds: from the W (270 degrees) at 8 MPH (7 knots; 3.6 m/s)
Visibility: 6 or more miles (10+ km)
Ceiling: 8000 feet AGL
Clouds: few clouds at 1000 feet AGL
broken clouds at 8000 feet AGL
Weather: no significant weather observed at this time

METAR text: ENOL 170620Z 27007KT 9999 FEW007 SCT030 BKN070 12/10 Q1014 NOSIG
Conditions at: ENOL (ORLAND III(NOR-A, NO) observed 0620 UTC 17 June 2019
Temperature: 12.0°C (54°F)
Dewpoint: 10.0°C (50°F) [RH = 88%]
Pressure (altimeter): 29.94 inches Hg (1014.0 mb)
Winds: from the W (270 degrees) at 8 MPH (7 knots; 3.6 m/s)
Visibility: 6 or more miles (10+ km)
Ceiling: 7000 feet AGL
Clouds: few clouds at 700 feet AGL
scattered clouds at 3000 feet AGL
broken clouds at 7000 feet AGL
Weather: no significant weather observed at this time

METAR text: ENOL 170550Z 26008KT 9999 -RA FEW006 SCT015 BKN040 12/11 Q1014 TEMPO 4000 RADZ BR BKN006
Conditions at: ENOL (ORLAND III(NOR-A, NO) observed 0550 UTC 17 June 2019
Temperature: 12.0°C (54°F)
Dewpoint: 11.0°C (52°F) [RH = 94%]
Pressure (altimeter): 29.94 inches Hg (1014.0 mb)
Winds: from the W (260 degrees) at 9 MPH (8 knots; 4.1 m/s)
Visibility: 6 or more miles (10+ km)
Ceiling: 4000 feet AGL
Clouds: few clouds at 600 feet AGL
scattered clouds at 1500 feet AGL
broken clouds at 4000 feet AGL
Weather: -RA  (light rain)

METAR text: ENOL 170520Z 27010KT 9000 -RA FEW006 SCT012 BKN017 12/11 Q1014 TEMPO 4000 RADZ BR BKN006
Conditions at: ENOL (ORLAND III(NOR-A, NO) observed 0520 UTC 17 June 2019
Temperature: 12.0°C (54°F)
Dewpoint: 11.0°C (52°F) [RH = 94%]
Pressure (altimeter): 29.94 inches Hg (1014.0 mb)
Winds: from the W (270 degrees) at 12 MPH (10 knots; 5.1 m/s)
Visibility: 6 miles ( 9 km)
Ceiling: 1700 feet AGL
Clouds: few clouds at 600 feet AGL
scattered clouds at 1200 feet AGL
broken clouds at 1700 feet AGL
Weather: -RA  (light rain)

METAR text: ENOL 170450Z 26009KT 9999 -RA FEW006 SCT012 BKN018 12/11 Q1014 TEMPO 4000 RADZ BR BKN006
Conditions at: ENOL (ORLAND III(NOR-A, NO) observed 0450 UTC 17 June 2019
Temperature: 12.0°C (54°F)
Dewpoint: 11.0°C (52°F) [RH = 94%]
Pressure (altimeter): 29.94 inches Hg (1014.0 mb)
Winds: from the W (260 degrees) at 10 MPH (9 knots; 4.6 m/s)
Visibility: 6 or more miles (10+ km)
Ceiling: 1800 feet AGL
Clouds: few clouds at 600 feet AGL
scattered clouds at 1200 feet AGL
broken clouds at 1800 feet AGL
Weather: -RA  (light rain)

METAR text: ENOL 170420Z 24005KT 9999 -RA FEW006 SCT017 BKN035 11/10 Q1014 TEMPO 4000 RADZ BR BKN006
Conditions at: ENOL (ORLAND III(NOR-A, NO) observed 0420 UTC 17 June 2019
Temperature: 11.0°C (52°F)
Dewpoint: 10.0°C (50°F) [RH = 94%]
Pressure (altimeter): 29.94 inches Hg (1014.0 mb)
Winds: from the WSW (240 degrees) at 6 MPH (5 knots; 2.6 m/s)
Visibility: 6 or more miles (10+ km)
Ceiling: 3500 feet AGL
Clouds: few clouds at 600 feet AGL
scattered clouds at 1700 feet AGL
broken clouds at 3500 feet AGL
Weather: -RA  (light rain)

METAR text: ENOL 170350Z 24006KT 9999 -RA FEW006 BKN025 11/10 Q1014
Conditions at: ENOL (ORLAND III(NOR-A, NO) observed 0350 UTC 17 June 2019
Temperature: 11.0°C (52°F)
Dewpoint: 10.0°C (50°F) [RH = 94%]
Pressure (altimeter): 29.94 inches Hg (1014.0 mb)
Winds: from the WSW (240 degrees) at 7 MPH (6 knots; 3.1 m/s)
Visibility: 6 or more miles (10+ km)
Ceiling: 2500 feet AGL
Clouds: few clouds at 600 feet AGL
broken clouds at 2500 feet AGL
Weather: -RA  (light rain)

METAR text: ENOL 170250Z 25006KT 9999 FEW006 SCT025 BKN050 11/10 Q1014
Conditions at: ENOL (ORLAND III(NOR-A, NO) observed 0250 UTC 17 June 2019
Temperature: 11.0°C (52°F)
Dewpoint: 10.0°C (50°F) [RH = 94%]
Pressure (altimeter): 29.94 inches Hg (1014.0 mb)
Winds: from the WSW (250 degrees) at 7 MPH (6 knots; 3.1 m/s)
Visibility: 6 or more miles (10+ km)
Ceiling: 5000 feet AGL
Clouds: few clouds at 600 feet AGL
scattered clouds at 2500 feet AGL
broken clouds at 5000 feet AGL
Weather: no significant weather observed at this time

METAR text: ENOL 170150Z 24008KT 9999 FEW006 BKN040 11/10 Q1014
Conditions at: ENOL (ORLAND III(NOR-A, NO) observed 0150 UTC 17 June 2019
Temperature: 11.0°C (52°F)
Dewpoint: 10.0°C (50°F) [RH = 94%]
Pressure (altimeter): 29.94 inches Hg (1014.0 mb)
Winds: from the WSW (240 degrees) at 9 MPH (8 knots; 4.1 m/s)
Visibility: 6 or more miles (10+ km)
Ceiling: 4000 feet AGL
Clouds: few clouds at 600 feet AGL
broken clouds at 4000 feet AGL
Weather: no significant weather observed at this time

METAR text: ENOL 170050Z 24009KT 9999 9000N -RA FEW004 SCT007 BKN025 12/11 Q1014 RERA
Conditions at: ENOL (ORLAND III(NOR-A, NO) observed 0050 UTC 17 June 2019
Temperature: 12.0°C (54°F)
Dewpoint: 11.0°C (52°F) [RH = 94%]
Pressure (altimeter): 29.94 inches Hg (1014.0 mb)
Winds: from the WSW (240 degrees) at 10 MPH (9 knots; 4.6 m/s)
Visibility: 6 or more miles (10+ km)
Ceiling: 2500 feet AGL
Clouds: few clouds at 400 feet AGL
scattered clouds at 700 feet AGL
broken clouds at 2500 feet AGL
Weather: -RA  (light rain)

Forecast for: ENOL (ORLAND III(NOR-A, NO)
Text: TAF ENOL 1806/1906 14012KT 9999 FEW015 SCT050
Forecast period: 0600 to 1200 UTC 18 June 2019
Forecast type: FROM: standard forecast or significant change
Winds: from the SE (140 degrees) at 14 MPH (12 knots; 6.2 m/s)
Visibility: 6 or more miles 10+ km)
Ceiling: at least 12,000 feet AGL
Clouds: few clouds at 1500 feet AGL
scattered clouds at 5000 feet AGL
Weather: no significant weather forecast for this period
Text: TEMPO 1806/1906 25012KT SHRA SCT018CB BKN030
Forecast period: 0600 UTC 18 June 2019 to 0600 UTC 19 June 2019
Forecast type: TEMPORARY: The following changes expected for less than half the time period
Winds: from the WSW (250 degrees) at 14 MPH (12 knots; 6.2 m/s)
Visibility: missing
Ceiling: 3000 feet AGL
Clouds: scattered clouds at 1800 feet AGL
broken clouds at 3000 feet AGL
Weather: SHRA  (rain showers)
Text: BECMG 1812/1815 33008KT
Forecast period: 1200 UTC 18 June 2019 to 0600 UTC 19 June 2019
Forecast type: BECOMING: Conditions expected to become as follows by 1500 UTC 18 June 2019
Winds: from the NNW (330 degrees) at 9 MPH (8 knots; 4.1 m/s)
Visibility: 6 or more miles 10+ km)
Ceiling: at least 12,000 feet AGL
Clouds: few clouds at 1500 feet AGL
scattered clouds at 5000 feet AGL
Weather: no significant weather forecast for this period
Text: PROB30
Forecast period: 1200 to 1800 UTC 18 June 2019
Forecast type: TEMPORARY: The following changes expected for less than half the time period
Visibility: missing
Ceiling: unknown
Clouds: missing
Weather: TSRA  (rain associated with thunderstorm(s))